Time;durP1;ratioP1;P1;durP2;ratioP2;P2;SDS_P1;SDS_P2;PMS_P1;PMS_P2;Temp;Humidity;BMP_temperature;BMP_pressure;BME280_temperature;BME280_humidity;BME280_pressure;Samples;Min_cycle;Max_cycle;Signal;HPM_P1;HPM_P2
2024/01/10 00:02:22;;;;;;;0.40;0.40;;;;;;;-6.74;100.00;100826.00;5112249;28;20205;-59
2024/01/10 00:04:49;;;;;;;0.10;0.10;;;;;;;-6.80;100.00;100820.88;5112063;28;20519;-60
2024/01/10 00:07:16;;;;;;;0.30;0.30;;;;;;;-6.80;100.00;100823.34;5112416;28;20477;-59
2024/01/10 00:09:43;;;;;;;0.10;0.10;;;;;;;-6.80;100.00;100827.50;5111936;28;20450;-60
2024/01/10 00:12:11;;;;;;;0.40;0.40;;;;;;;-6.82;100.00;100827.44;5111996;28;20457;-60
2024/01/10 00:14:38;;;;;;;0.10;0.10;;;;;;;-6.84;100.00;100831.50;5111935;28;21009;-60
2024/01/10 00:17:05;;;;;;;0.30;0.30;;;;;;;-6.87;100.00;100833.91;5111931;28;20457;-60
2024/01/10 00:19:32;;;;;;;7.00;1.13;;;;;;;-6.90;100.00;100829.72;5112321;28;20606;-60
2024/01/10 00:21:58;;;;;;;0.10;0.10;;;;;;;-7.14;100.00;100834.88;5112024;28;20447;-60
2024/01/10 00:24:25;;;;;;;1.40;0.83;;;;;;;-7.11;100.00;100839.91;5111754;28;20450;-60
2024/01/10 00:26:52;;;;;;;1.13;0.83;;;;;;;-7.06;100.00;100833.44;5111628;28;20955;-60
2024/01/10 00:29:20;;;;;;;0.20;0.20;;;;;;;-7.07;100.00;100833.38;5112012;28;20458;-59
2024/01/10 00:31:47;;;;;;;0.47;0.47;;;;;;;-7.12;100.00;100835.75;5111623;28;20458;-59
2024/01/10 00:34:14;;;;;;;0.10;0.10;;;;;;;-7.12;100.00;100835.75;5111882;28;20442;-60
2024/01/10 00:36:41;;;;;;;0.30;0.30;;;;;;;-7.16;100.00;100838.09;5111571;28;20983;-60
2024/01/10 00:39:08;;;;;;;0.30;0.30;;;;;;;-7.17;100.00;100842.25;5111567;28;20450;-60
2024/01/10 00:41:34;;;;;;;0.43;0.30;;;;;;;-7.18;100.00;100838.06;5111330;28;20444;-60
2024/01/10 00:44:01;;;;;;;0.67;0.67;;;;;;;-7.22;100.00;100831.31;5110699;28;20462;-59
2024/01/10 00:46:29;;;;;;;0.20;0.20;;;;;;;-7.32;100.00;100839.34;5111645;28;20443;-60
2024/01/10 00:48:56;;;;;;;0.20;0.20;;;;;;;-7.41;100.00;100839.91;5111302;28;20461;-60
2024/01/10 00:51:23;;;;;;;0.20;0.20;;;;;;;-7.37;100.00;100838.34;5111142;28;20451;-59
2024/01/10 00:53:50;;;;;;;0.33;0.33;;;;;;;-7.40;100.00;100836.63;5111044;28;20990;-59
2024/01/10 00:56:16;;;;;;;0.23;0.23;;;;;;;-7.43;100.00;100835.69;5111436;28;20470;-60
2024/01/10 00:58:43;;;;;;;0.10;0.10;;;;;;;-7.62;100.00;100837.66;5111402;28;20475;-60
2024/01/10 01:01:10;;;;;;;0.20;0.20;;;;;;;-7.61;100.00;100836.84;5110402;28;20486;-60
2024/01/10 01:03:38;;;;;;;0.10;0.10;;;;;;;-7.59;100.00;100835.25;5109472;28;20447;-61
2024/01/10 01:06:06;;;;;;;0.30;0.30;;;;;;;-7.61;100.00;100831.03;5110278;28;20943;-59
2024/01/10 01:08:32;;;;;;;0.10;0.10;;;;;;;-7.59;100.00;100839.34;5110966;28;20491;-60
2024/01/10 01:10:59;;;;;;;0.20;0.20;;;;;;;-7.61;100.00;100833.53;5110969;28;20538;-59
2024/01/10 01:13:26;;;;;;;0.33;0.33;;;;;;;-7.66;100.00;100833.38;5110747;28;20979;-59
2024/01/10 01:15:53;;;;;;;0.10;0.10;;;;;;;-7.77;100.00;100825.59;5110694;28;20450;-60
2024/01/10 01:18:20;;;;;;;0.33;0.33;;;;;;;-7.73;100.00;100825.72;5110625;28;20449;-59
2024/01/10 01:20:50;;;;;;;0.37;0.37;;;;;;;-7.72;100.00;100823.25;5110539;28;20919;-60
2024/01/10 01:23:16;;;;;;;0.10;0.10;;;;;;;-7.75;100.00;100813.25;5110730;28;20960;-60
2024/01/10 01:25:43;;;;;;;0.17;0.17;;;;;;;-7.86;100.00;100819.53;5110736;28;20974;-60
2024/01/10 01:28:10;;;;;;;0.67;0.67;;;;;;;-7.87;100.00;100817.84;5110769;28;20446;-60
2024/01/10 01:30:39;;;;;;;0.10;0.10;;;;;;;-7.76;100.00;100819.03;5110378;28;21001;-59
2024/01/10 01:33:05;;;;;;;0.10;0.10;;;;;;;-7.78;100.00;100814.00;5110563;28;20951;-60
2024/01/10 01:35:32;;;;;;;0.13;0.13;;;;;;;-7.75;100.00;100819.03;5110508;28;20825;-59
2024/01/10 01:38:00;;;;;;;0.30;0.30;;;;;;;-7.77;100.00;100812.34;5110242;28;20450;-59
2024/01/10 01:40:27;;;;;;;0.20;0.20;;;;;;;-7.75;100.00;100816.56;5110362;28;20503;-59
2024/01/10 01:42:54;;;;;;;0.00;0.00;;;;;;;-7.79;100.00;100812.31;5110379;28;20443;-59
2024/01/10 01:45:21;;;;;;;0.43;0.43;;;;;;;-7.80;100.00;100814.75;5110382;28;20440;-59
2024/01/10 01:47:48;;;;;;;0.20;0.20;;;;;;;-7.81;100.00;100808.94;5110334;28;20469;-59
2024/01/10 01:50:13;;;;;;;0.20;0.20;;;;;;;-7.88;100.00;100806.22;5110415;28;20821;-59
2024/01/10 01:52:40;;;;;;;0.90;0.90;;;;;;;-7.85;100.00;100802.22;5110017;28;20992;-60
2024/01/10 01:55:10;;;;;;;4.57;0.97;;;;;;;-7.81;100.00;100808.09;5109980;28;20623;-60
2024/01/10 01:57:38;;;;;;;0.17;0.17;;;;;;;-7.80;100.00;100804.81;5109914;28;20458;-59
2024/01/10 02:00:06;;;;;;;0.83;0.83;;;;;;;-7.78;100.00;100793.28;5110061;28;20483;-60
2024/01/10 02:02:35;;;;;;;0.30;0.30;;;;;;;-7.80;100.00;100794.88;5109950;28;20446;-60
2024/01/10 02:05:03;;;;;;;0.10;0.10;;;;;;;-7.80;100.00;100799.84;5109980;28;20538;-60
2024/01/10 02:07:30;;;;;;;0.20;0.20;;;;;;;-7.83;100.00;100804.72;5109612;28;20505;-60
2024/01/10 02:09:57;;;;;;;0.30;0.30;;;;;;;-7.83;100.00;100804.72;5109576;28;20798;-60
2024/01/10 02:12:25;;;;;;;0.10;0.10;;;;;;;-7.91;100.00;100798.69;5109565;28;20443;-59
2024/01/10 02:14:52;;;;;;;0.20;0.20;;;;;;;-7.88;100.00;100801.25;5109890;28;20448;-60
2024/01/10 02:17:19;;;;;;;0.10;0.10;;;;;;;-7.92;100.00;100800.31;5109646;28;20439;-60
2024/01/10 02:19:46;;;;;;;0.40;0.40;;;;;;;-7.89;100.00;100789.66;5110031;28;20527;-60
2024/01/10 02:22:13;;;;;;;0.43;0.43;;;;;;;-7.94;100.00;100791.13;5109490;28;20458;-60
2024/01/10 02:24:39;;;;;;;1.10;0.80;;;;;;;-7.91;100.00;100791.22;5109392;28;20447;-60
2024/01/10 02:27:08;;;;;;;0.10;0.10;;;;;;;-7.89;100.00;100789.66;5109488;28;20959;-60
2024/01/10 02:29:35;;;;;;;0.10;0.10;;;;;;;-7.85;100.00;100788.97;5109541;28;20451;-60
2024/01/10 02:32:02;;;;;;;0.50;0.40;;;;;;;-7.86;100.00;100790.56;5109499;28;20454;-59
2024/01/10 02:34:31;;;;;;;0.27;0.27;;;;;;;-7.87;100.00;100783.09;5109412;28;20443;-59
2024/01/10 02:36:58;;;;;;;0.20;0.20;;;;;;;-7.87;100.00;100790.53;5109569;28;20459;-59
2024/01/10 02:39:25;;;;;;;0.27;0.27;;;;;;;-7.89;100.00;100789.66;5109273;28;20435;-60
2024/01/10 02:41:51;;;;;;;0.40;0.40;;;;;;;-7.89;100.00;100782.19;5109169;28;20490;-59
2024/01/10 02:44:20;;;;;;;0.27;0.27;;;;;;;-7.90;100.00;100778.03;5109067;28;20825;-60
2024/01/10 02:46:46;;;;;;;0.20;0.20;;;;;;;-7.95;100.00;100785.34;5109140;28;20451;-60
2024/01/10 02:49:13;;;;;;;0.40;0.40;;;;;;;-7.94;100.00;100781.22;5109053;28;20832;-59
2024/01/10 02:51:40;;;;;;;0.30;0.30;;;;;;;-7.94;100.00;100776.25;5108817;28;20455;-60
2024/01/10 02:54:07;;;;;;;0.40;0.40;;;;;;;-7.94;100.00;100776.25;5109246;28;20443;-59
2024/01/10 02:56:34;;;;;;;0.20;0.20;;;;;;;-7.94;100.00;100777.13;5109246;28;20451;-60
2024/01/10 02:59:00;;;;;;;0.20;0.20;;;;;;;-7.89;100.00;100779.72;5108916;28;20837;-60
2024/01/10 03:01:29;;;;;;;0.23;0.23;;;;;;;-7.90;100.00;100778.03;5108856;28;20517;-60
2024/01/10 03:03:55;;;;;;;0.30;0.30;;;;;;;-7.88;100.00;100769.84;5109208;28;20447;-59
2024/01/10 03:06:22;;;;;;;0.77;0.77;;;;;;;-7.88;100.00;100766.50;5108549;28;20462;-60
2024/01/10 03:08:49;;;;;;;0.43;0.43;;;;;;;-7.88;100.00;100773.94;5108705;28;21169;-59
2024/01/10 03:11:16;;;;;;;0.37;0.37;;;;;;;-7.90;100.00;100771.44;5108913;28;20536;-59
2024/01/10 03:13:44;;;;;;;0.10;0.10;;;;;;;-7.93;100.00;100778.78;5108818;28;20466;-60
2024/01/10 03:16:11;;;;;;;0.30;0.30;;;;;;;-7.95;100.00;100772.09;5109119;28;20447;-59
2024/01/10 03:18:40;;;;;;;0.20;0.20;;;;;;;-7.95;100.00;100764.66;5108328;28;20447;-60
2024/01/10 03:21:06;;;;;;;0.20;0.20;;;;;;;-8.19;100.00;100770.56;5107528;28;20495;-59
2024/01/10 03:23:33;;;;;;;0.30;0.30;;;;;;;-8.28;100.00;100760.34;5108113;28;20458;-60
2024/01/10 03:26:00;;;;;;;0.23;0.23;;;;;;;-8.21;100.00;100762.22;5108717;28;20825;-59
2024/01/10 03:28:28;;;;;;;0.20;0.20;;;;;;;-8.09;100.00;100765.06;5108874;28;20834;-59
2024/01/10 03:30:55;;;;;;;0.10;0.10;;;;;;;-8.12;100.00;100767.44;5108636;28;20815;-59
2024/01/10 03:33:21;;;;;;;2.20;0.87;;;;;;;-8.05;100.00;100769.34;5108787;28;20443;-60
2024/01/10 03:35:50;;;;;;;0.10;0.10;;;;;;;-8.01;100.00;100765.31;5108692;28;20454;-59
2024/01/10 03:38:16;;;;;;;0.10;0.10;;;;;;;-8.00;100.00;100762.88;5108896;28;20435;-59
2024/01/10 03:40:43;;;;;;;0.30;0.30;;;;;;;-8.04;100.00;100756.13;5108446;28;20501;-60
2024/01/10 03:43:12;;;;;;;0.10;0.10;;;;;;;-8.05;100.00;100764.38;5108421;28;20447;-59
2024/01/10 03:45:38;;;;;;;0.20;0.20;;;;;;;-8.00;100.00;100752.97;5108573;28;20453;-60
2024/01/10 03:48:06;;;;;;;0.10;0.10;;;;;;;-7.99;100.00;100757.09;5108444;28;20978;-60
2024/01/10 03:50:33;;;;;;;0.10;0.10;;;;;;;-7.97;100.00;100752.19;5108679;28;20462;-60
2024/01/10 03:53:01;;;;;;;0.20;0.20;;;;;;;-7.98;100.00;100760.44;5108307;28;20454;-59
2024/01/10 03:55:28;;;;;;;0.20;0.20;;;;;;;-7.98;100.00;100758.78;5108300;28;20478;-60
2024/01/10 03:57:57;;;;;;;0.23;0.23;;;;;;;-8.02;100.00;100759.50;5108428;28;20845;-59
2024/01/10 04:00:24;;;;;;;0.83;0.50;;;;;;;-8.01;100.00;100761.19;5108567;28;20494;-59
2024/01/10 04:02:51;;;;;;;0.20;0.20;;;;;;;-8.03;100.00;100767.75;5108240;28;20546;-60
2024/01/10 04:05:19;;;;;;;0.60;0.60;;;;;;;-8.02;100.00;100763.63;5108517;28;20470;-59
2024/01/10 04:07:46;;;;;;;0.30;0.30;;;;;;;-8.03;100.00;100761.94;5108790;28;20447;-59
2024/01/10 04:10:14;;;;;;;0.10;0.10;;;;;;;-8.04;100.00;100766.06;5108537;28;20454;-59
2024/01/10 04:12:41;;;;;;;0.57;0.57;;;;;;;-8.02;100.00;100769.44;5108381;28;20486;-59
2024/01/10 04:15:09;;;;;;;0.07;0.07;;;;;;;-8.01;100.00;100767.78;5108360;28;20446;-60
2024/01/10 04:17:36;;;;;;;0.10;0.10;;;;;;;-8.02;100.00;100769.44;5109028;28;20446;-59
2024/01/10 04:20:04;;;;;;;0.47;0.47;;;;;;;-8.01;100.00;100765.31;5112087;28;20478;-60
2024/01/10 04:22:30;;;;;;;0.10;0.10;;;;;;;-8.02;100.00;100774.41;5111719;28;20521;-60
2024/01/10 04:24:59;;;;;;;0.47;0.47;;;;;;;-8.02;100.00;100774.41;5112036;28;20991;-60
2024/01/10 04:27:27;;;;;;;0.17;0.17;;;;;;;-8.02;100.00;100771.91;5111593;28;20994;-59
2024/01/10 04:29:54;;;;;;;0.27;0.27;;;;;;;-8.02;100.00;100769.44;5111883;28;20443;-59
2024/01/10 04:32:21;;;;;;;0.20;0.20;;;;;;;-8.01;100.00;100771.09;5111536;28;20454;-60
2024/01/10 04:34:48;;;;;;;0.43;0.43;;;;;;;-8.03;100.00;100777.69;5111437;28;20801;-60
2024/01/10 04:37:15;;;;;;;0.40;0.40;;;;;;;-8.06;100.00;100772.59;5111539;28;20454;-60
2024/01/10 04:39:42;;;;;;;0.20;0.20;;;;;;;-8.05;100.00;100781.75;5111438;28;20496;-59
2024/01/10 04:42:10;;;;;;;0.30;0.30;;;;;;;-8.06;100.00;100782.53;5111236;28;20487;-60
2024/01/10 04:44:38;;;;;;;0.60;0.60;;;;;;;-8.04;100.00;100785.91;5111418;28;20479;-59
2024/01/10 04:47:07;;;;;;;0.17;0.17;;;;;;;-8.05;100.00;100784.22;5111439;28;20443;-59
2024/01/10 04:49:34;;;;;;;0.13;0.13;;;;;;;-8.05;100.00;100789.19;5111312;27;20532;-60
2024/01/10 04:52:02;;;;;;;0.17;0.17;;;;;;;-8.05;100.00;100784.22;5111565;28;20499;-59
2024/01/10 04:54:28;;;;;;;0.10;0.10;;;;;;;-8.03;100.00;100785.13;5111192;28;20459;-59
2024/01/10 04:56:55;;;;;;;0.10;0.10;;;;;;;-8.03;100.00;100787.63;5111144;28;20447;-59
2024/01/10 04:59:22;;;;;;;0.40;0.40;;;;;;;-8.03;100.00;100787.63;5111102;28;20459;-60
2024/01/10 05:01:50;;;;;;;0.30;0.30;;;;;;;-8.02;100.00;100791.75;5110791;28;21019;-59
2024/01/10 05:04:17;;;;;;;0.10;0.10;;;;;;;-8.06;100.00;100786.66;5111241;28;20447;-60
2024/01/10 05:06:44;;;;;;;0.10;0.10;;;;;;;-8.04;100.00;100785.91;5110972;28;20522;-60
2024/01/10 05:09:11;;;;;;;0.10;0.10;;;;;;;-8.03;100.00;100790.09;5110741;28;20444;-59
2024/01/10 05:11:38;;;;;;;0.10;0.10;;;;;;;-8.02;100.00;100791.75;5111118;28;20454;-59
2024/01/10 05:14:05;;;;;;;0.40;0.40;;;;;;;-8.02;100.00;100784.31;5110931;28;20967;-59
2024/01/10 05:16:32;;;;;;;0.20;0.20;;;;;;;-8.03;100.00;100795.06;5110791;28;20446;-59
2024/01/10 05:19:02;;;;;;;0.10;0.10;;;;;;;-8.02;100.00;100804.19;5110652;28;20443;-59
2024/01/10 05:21:29;;;;;;;0.30;0.30;;;;;;;-8.04;100.00;100805.75;5110807;28;20494;-59
2024/01/10 05:23:56;;;;;;;1.27;0.60;;;;;;;-8.03;100.00;100800.03;5110736;28;20448;-59
2024/01/10 05:26:23;;;;;;;1.87;1.73;;;;;;;-8.04;100.00;100800.78;5110503;28;20471;-60
2024/01/10 05:28:50;;;;;;;0.10;0.10;;;;;;;-8.04;100.00;100797.47;5110052;28;20533;-60
2024/01/10 05:31:17;;;;;;;0.17;0.17;;;;;;;-8.06;100.00;100807.34;5110564;28;20457;-59
2024/01/10 05:33:44;;;;;;;0.10;0.10;;;;;;;-8.06;100.00;100791.63;5110245;28;20841;-60
2024/01/10 05:36:12;;;;;;;0.50;0.50;;;;;;;-8.05;100.00;100799.13;5110635;27;20525;-59
2024/01/10 05:38:39;;;;;;;0.40;0.40;;;;;;;-8.03;100.00;100802.50;5110549;28;20462;-60
2024/01/10 05:41:06;;;;;;;0.37;0.30;;;;;;;-8.03;100.00;100795.06;5110310;28;20490;-60
2024/01/10 05:43:33;;;;;;;0.40;0.40;;;;;;;-8.04;100.00;100790.88;5110445;28;20431;-60
2024/01/10 05:46:00;;;;;;;0.10;0.10;;;;;;;-8.03;100.00;100797.53;5110503;28;20443;-60
2024/01/10 05:48:27;;;;;;;0.40;0.40;;;;;;;-8.03;100.00;100791.72;5110147;28;20444;-59
2024/01/10 05:50:54;;;;;;;0.30;0.30;;;;;;;-8.03;100.00;100795.06;5110145;28;20474;-59
2024/01/10 05:53:24;;;;;;;0.40;0.40;;;;;;;-8.05;100.00;100798.28;5109941;28;20442;-60
2024/01/10 05:55:52;;;;;;;0.30;0.30;;;;;;;-8.07;100.00;100794.91;5109982;28;20427;-59
2024/01/10 05:58:18;;;;;;;0.23;0.23;;;;;;;-8.06;100.00;100796.56;5109954;28;20473;-60
2024/01/10 06:00:45;;;;;;;0.63;0.63;;;;;;;-8.05;100.00;100796.63;5110018;28;20473;-60
2024/01/10 06:03:12;;;;;;;0.10;0.10;;;;;;;-8.02;100.00;100794.25;5109927;28;20457;-60
2024/01/10 06:05:39;;;;;;;0.10;0.10;;;;;;;-7.99;100.00;100796.81;5110125;28;20982;-60
2024/01/10 06:08:06;;;;;;;0.30;0.30;;;;;;;-7.99;100.00;100794.34;5109604;28;20838;-59
2024/01/10 06:10:35;;;;;;;0.50;0.50;;;;;;;-7.94;100.00;100796.97;5109961;28;20466;-60
2024/01/10 06:13:01;;;;;;;0.40;0.40;;;;;;;-7.90;100.00;100797.91;5110081;28;20622;-60
2024/01/10 06:15:28;;;;;;;1.83;0.60;;;;;;;-7.87;100.00;100798.00;5109046;27;20451;-59
2024/01/10 06:17:55;;;;;;;0.93;0.93;;;;;;;-7.85;100.00;100803.84;5107987;28;20450;-60
2024/01/10 06:20:22;;;;;;;0.10;0.10;;;;;;;-7.83;100.00;100807.19;5108512;28;20462;-60
2024/01/10 06:22:49;;;;;;;0.20;0.20;;;;;;;-7.80;100.00;100803.16;5109374;28;20486;-60
2024/01/10 06:25:16;;;;;;;0.43;0.40;;;;;;;-7.72;100.00;100800.91;5109594;28;20575;-59
2024/01/10 06:27:44;;;;;;;0.13;0.13;;;;;;;-7.66;100.00;100797.78;5109609;28;20490;-60
2024/01/10 06:30:12;;;;;;;0.50;0.50;;;;;;;-7.63;100.00;100793.72;5109330;28;20994;-59
2024/01/10 06:32:38;;;;;;;0.30;0.30;;;;;;;-7.54;100.00;100798.97;5109426;28;20439;-60
2024/01/10 06:35:09;;;;;;;0.30;0.30;;;;;;;-7.48;100.00;100803.25;5109494;28;20450;-60
2024/01/10 06:37:35;;;;;;;1.70;0.57;;;;;;;-7.39;100.00;100797.72;5110270;28;20558;-60
2024/01/10 06:40:04;;;;;;;0.90;0.90;;;;;;;-7.30;100.00;100797.97;5108736;28;20447;-59
2024/01/10 06:42:31;;;;;;;0.30;0.30;;;;;;;-7.20;100.00;100804.88;5108952;28;20493;-59
2024/01/10 06:44:59;;;;;;;0.70;0.70;;;;;;;-7.10;100.00;100809.31;5109305;28;20455;-59
2024/01/10 06:47:25;;;;;;;0.63;0.63;;;;;;;-6.99;100.00;100812.06;5109164;28;20458;-60
2024/01/10 06:49:52;;;;;;;2.30;1.30;;;;;;;-6.90;100.00;100819.75;5108904;28;20833;-59
2024/01/10 06:52:19;;;;;;;0.77;0.77;;;;;;;-6.76;100.00;100822.63;5108954;28;20453;-59
2024/01/10 06:54:46;;;;;;;0.50;0.50;;;;;;;-6.73;100.00;100817.72;5108973;28;21023;-60
2024/01/10 06:57:13;;;;;;;1.33;1.17;;;;;;;-6.71;100.00;100820.25;5109224;28;20458;-59
2024/01/10 06:59:40;;;;;;;0.33;0.33;;;;;;;-6.55;100.00;100816.50;5108961;28;20443;-60
2024/01/10 07:02:08;;;;;;;0.20;0.20;;;;;;;-6.41;100.00;100820.19;5108881;28;20490;-59
2024/01/10 07:04:38;;;;;;;0.73;0.63;;;;;;;-6.30;100.00;100823.78;5109272;28;20447;-60
2024/01/10 07:07:05;;;;;;;0.57;0.53;;;;;;;-6.10;100.00;100818.44;5109113;28;20836;-59
2024/01/10 07:09:32;;;;;;;0.60;0.60;;;;;;;-5.88;100.00;100823.03;5108651;28;20920;-59
2024/01/10 07:11:59;;;;;;;0.60;0.60;;;;;;;-5.66;100.00;100816.06;5108711;28;20450;-59
2024/01/10 07:14:25;;;;;;;2.40;1.20;;;;;;;-5.38;100.00;100825.78;5108711;28;20455;-60
2024/01/10 07:16:53;;;;;;;0.60;0.60;;;;;;;-5.20;100.00;100819.50;5108775;28;20444;-60
2024/01/10 07:19:23;;;;;;;0.43;0.43;;;;;;;-5.01;100.00;100829.00;5108896;28;20537;-60
2024/01/10 07:21:51;;;;;;;0.70;0.63;;;;;;;-4.83;100.00;100821.88;5108667;28;21039;-59
2024/01/10 07:24:17;;;;;;;1.03;0.80;;;;;;;-4.56;100.00;100828.16;5108963;28;20478;-60
2024/01/10 07:26:44;;;;;;;0.83;0.80;;;;;;;-4.45;100.00;100829.19;5108528;28;20462;-60
2024/01/10 07:29:11;;;;;;;1.97;1.30;;;;;;;-4.37;100.00;100827.63;5108833;28;20447;-60
2024/01/10 07:31:39;;;;;;;0.73;0.63;;;;;;;-4.23;100.00;100834.53;5109074;28;20443;-60
2024/01/10 07:34:05;;;;;;;0.80;0.80;;;;;;;-4.09;100.00;100828.09;5108627;28;20512;-60
2024/01/10 07:36:34;;;;;;;1.47;0.40;;;;;;;-3.96;100.00;100839.09;5109070;28;20470;-60
2024/01/10 07:39:01;;;;;;;5.13;1.07;;;;;;;-3.80;100.00;100835.19;5108930;28;20512;-60
2024/01/10 07:41:28;;;;;;;1.40;0.80;;;;;;;-3.81;100.00;100838.47;5108255;28;20486;-60
2024/01/10 07:43:55;;;;;;;1.60;0.67;;;;;;;-3.73;100.00;100846.94;5108794;28;20451;-58
2024/01/10 07:46:22;;;;;;;1.87;0.83;;;;;;;-3.63;100.00;100848.75;5108428;28;20454;-60
2024/01/10 07:48:49;;;;;;;0.33;0.33;;;;;;;-3.59;100.00;100845.47;5108746;28;20451;-60
2024/01/10 07:51:16;;;;;;;0.40;0.40;;;;;;;-3.47;100.00;100840.63;5109077;28;20459;-60
2024/01/10 07:53:44;;;;;;;2.83;1.47;;;;;;;-3.38;100.00;100846.56;5112478;28;20828;-60
2024/01/10 07:56:12;;;;;;;1.23;1.10;;;;;;;-3.51;100.00;100843.09;5112734;28;20946;-60
2024/01/10 07:58:39;;;;;;;0.50;0.50;;;;;;;-3.38;100.00;100849.06;5112878;28;20612;-60
2024/01/10 08:01:06;;;;;;;0.87;0.87;;;;;;;-3.27;100.00;100847.56;5112584;28;20443;-60
2024/01/10 08:03:34;;;;;;;0.20;0.20;;;;;;;-3.00;100.00;100847.88;5112265;28;21005;-59
2024/01/10 08:06:01;;;;;;;1.60;0.73;;;;;;;-2.75;100.00;100853.16;5112362;28;20442;-60
2024/01/10 08:08:28;;;;;;;1.13;1.07;;;;;;;-2.50;100.00;100851.75;5111981;28;20450;-60
2024/01/10 08:10:57;;;;;;;1.40;1.10;;;;;;;-2.28;100.00;100855.28;5111813;28;20465;-60
2024/01/10 08:13:24;;;;;;;1.63;1.50;;;;;;;-2.03;100.00;100856.31;5112045;28;20451;-60
2024/01/10 08:15:50;;;;;;;3.03;1.50;;;;;;;-1.84;100.00;100852.25;5112162;28;20439;-60
2024/01/10 08:18:17;;;;;;;2.13;1.33;;;;;;;-1.78;100.00;100852.31;5111870;28;20445;-59
2024/01/10 08:20:44;;;;;;;1.23;1.13;;;;;;;-1.69;100.00;100856.53;5111768;28;20636;-60
2024/01/10 08:23:11;;;;;;;1.53;1.27;;;;;;;-1.49;100.00;100851.63;5111738;27;21101;-60
2024/01/10 08:25:39;;;;;;;1.07;1.07;;;;;;;-1.20;100.00;100854.28;5111829;28;20859;-60
2024/01/10 08:28:07;;;;;;;0.93;0.80;;;;;;;-0.85;100.00;100859.44;5111887;28;20475;-59
2024/01/10 08:30:34;;;;;;;0.67;0.67;;;;;;;-0.54;100.00;100854.50;5112016;28;20854;-59
2024/01/10 08:33:01;;;;;;;1.93;1.73;;;;;;;-0.32;100.00;100861.22;5111750;28;20450;-60
2024/01/10 08:35:28;;;;;;;2.33;1.23;;;;;;;-0.07;98.55;100862.06;5111544;28;20197;-59
2024/01/10 08:37:54;;;;;;;4.03;1.37;;;;;;;0.24;96.83;100861.22;5111480;28;20843;-60
2024/01/10 08:40:25;;;;;;;1.70;0.93;;;;;;;0.49;95.28;100862.81;5111637;28;20205;-59
2024/01/10 08:42:51;;;;;;;1.33;1.23;;;;;;;0.64;92.55;100862.81;5111659;28;20213;-59
2024/01/10 08:45:20;;;;;;;1.57;1.20;;;;;;;0.80;91.55;100865.25;5111630;28;20205;-60
2024/01/10 08:47:46;;;;;;;1.10;0.67;;;;;;;0.98;89.83;100866.88;5111299;28;20194;-60
2024/01/10 08:50:13;;;;;;;2.20;1.40;;;;;;;1.17;87.61;100862.59;5111552;28;20611;-59
2024/01/10 08:52:40;;;;;;;2.10;1.37;;;;;;;1.32;85.87;100858.28;5111065;28;20209;-60
2024/01/10 08:55:08;;;;;;;1.20;1.10;;;;;;;1.16;83.28;100860.91;5111388;28;20702;-60
2024/01/10 08:57:35;;;;;;;10.40;1.60;;;;;;;1.05;84.59;100854.25;5111224;28;20284;-60
2024/01/10 09:00:02;;;;;;;2.77;1.90;;;;;;;1.11;83.82;100854.22;5111277;28;20603;-60
2024/01/10 09:02:30;;;;;;;2.40;1.30;;;;;;;1.15;84.06;100849.16;5111238;28;20233;-60
2024/01/10 09:04:57;;;;;;;3.67;1.63;;;;;;;1.31;84.29;100860.84;5110431;28;20267;-60
2024/01/10 09:07:23;;;;;;;0.93;0.83;;;;;;;1.19;82.37;100850.81;5111015;28;20197;-60
2024/01/10 09:09:50;;;;;;;1.60;1.37;;;;;;;0.93;84.02;100849.25;5110831;28;20201;-59
2024/01/10 09:12:17;;;;;;;2.00;1.70;;;;;;;1.07;84.86;100842.47;5110779;28;20201;-60
2024/01/10 09:14:44;;;;;;;0.73;0.73;;;;;;;0.90;84.35;100844.22;5111182;28;20197;-60
2024/01/10 09:17:10;;;;;;;2.47;1.23;;;;;;;0.92;84.42;100840.03;5109612;28;20201;-60
2024/01/10 09:19:39;;;;;;;1.67;1.20;;;;;;;0.84;84.44;100835.03;5109590;28;20208;-60
2024/01/10 09:22:05;;;;;;;1.97;1.23;;;;;;;0.73;84.06;100830.88;5110122;28;20236;-59
2024/01/10 09:24:32;;;;;;;1.47;1.37;;;;;;;0.39;84.76;100838.53;5110910;28;20705;-60
2024/01/10 09:26:59;;;;;;;1.20;1.10;;;;;;;0.37;86.84;100833.50;5110719;28;20564;-60
2024/01/10 09:29:27;;;;;;;1.40;1.30;;;;;;;0.61;86.46;100832.63;5110514;28;20244;-60
2024/01/10 09:31:54;;;;;;;2.07;1.57;;;;;;;0.64;85.89;100827.56;5110497;28;20295;-60
2024/01/10 09:34:21;;;;;;;2.53;1.27;;;;;;;0.87;86.34;100831.66;5110483;28;20198;-60
2024/01/10 09:36:49;;;;;;;3.97;1.60;;;;;;;1.34;85.73;100825.53;5110320;28;20204;-60
2024/01/10 09:39:16;;;;;;;2.73;1.23;;;;;;;1.66;83.13;100824.44;5110827;28;20266;-59
2024/01/10 09:41:48;;;;;;;2.30;1.67;;;;;;;1.67;75.96;100828.66;5110658;28;20197;-60
2024/01/10 09:44:16;;;;;;;3.73;1.37;;;;;;;1.67;77.21;100833.72;5110416;28;20201;-60
2024/01/10 09:46:46;;;;;;;1.07;0.90;;;;;;;2.06;74.32;100829.16;5110241;28;20204;-59
2024/01/10 09:49:13;;;;;;;3.07;1.47;;;;;;;2.60;74.22;100829.47;5110410;28;20193;-59
2024/01/10 09:51:40;;;;;;;1.13;1.03;;;;;;;3.04;70.56;100823.03;5109979;28;20217;-59
2024/01/10 09:54:09;;;;;;;2.67;1.40;;;;;;;3.50;68.86;100828.25;5110298;28;20205;-59
2024/01/10 09:56:36;;;;;;;2.53;1.43;;;;;;;3.80;66.54;100829.44;5110333;28;20598;-59
2024/01/10 09:59:04;;;;;;;3.20;1.87;;;;;;;4.11;62.93;100825.59;5110308;28;20365;-59
2024/01/10 10:01:32;;;;;;;2.40;1.80;;;;;;;4.41;62.25;100819.13;5110189;28;20232;-59
2024/01/10 10:03:59;;;;;;;5.47;1.50;;;;;;;4.29;59.86;100818.47;5109826;28;20237;-59
2024/01/10 10:06:26;;;;;;;3.37;2.10;;;;;;;4.61;59.15;100818.72;5110090;28;20194;-59
2024/01/10 10:08:53;;;;;;;5.23;2.43;;;;;;;5.01;58.33;100808.59;5110128;27;20750;-59
2024/01/10 10:11:21;;;;;;;2.73;1.70;;;;;;;5.12;56.52;100810.88;5109785;28;20258;-59
2024/01/10 10:13:48;;;;;;;1.97;1.43;;;;;;;5.31;54.34;100801.19;5109647;28;20208;-59
2024/01/10 10:16:24;;;;;;;3.87;1.80;;;;;;;5.37;54.13;100806.09;5109797;28;20681;-59
2024/01/10 10:18:53;;;;;;;2.93;1.50;;;;;;;5.00;51.54;100796.78;5109894;28;20201;-59
2024/01/10 10:21:19;;;;;;;2.33;1.73;;;;;;;5.19;53.40;100792.97;5109685;28;20198;-59
2024/01/10 10:23:59;;;;;;;3.50;2.07;;;;;;;5.31;51.44;100786.78;5109525;28;20233;-59
2024/01/10 10:26:29;;;;;;;2.87;1.70;;;;;;;4.91;49.72;100791.91;5109626;28;20215;-59
2024/01/10 10:28:56;;;;;;;2.80;1.90;;;;;;;4.95;49.05;100789.28;5109652;28;20736;-59
2024/01/10 10:31:24;;;;;;;1.40;1.30;;;;;;;5.13;49.85;100788.06;5109380;28;20204;-59
2024/01/10 10:33:51;;;;;;;3.13;2.03;;;;;;;4.80;49.85;100784.56;5109191;28;20205;-59
2024/01/10 10:36:18;;;;;;;2.10;1.43;;;;;;;4.34;48.32;100787.19;5109328;28;20648;-59
2024/01/10 10:38:48;;;;;;;3.60;1.50;;;;;;;4.20;49.96;100783.22;5109285;28;20682;-59
2024/01/10 10:41:15;;;;;;;4.53;1.30;;;;;;;3.99;48.23;100779.38;5109241;28;20253;-59
2024/01/10 10:43:43;;;;;;;3.10;1.83;;;;;;;4.24;49.02;100777.22;5109288;28;20228;-59
2024/01/10 10:46:12;;;;;;;2.03;1.70;;;;;;;4.51;49.78;100773.31;5109215;28;20204;-59
2024/01/10 10:48:39;;;;;;;1.60;1.50;;;;;;;4.54;48.83;100769.91;5109173;28;20296;-59
2024/01/10 10:51:09;;;;;;;2.90;1.63;;;;;;;4.25;48.12;100768.78;5109575;28;20228;-60
2024/01/10 10:53:36;;;;;;;2.53;1.60;;;;;;;3.78;50.23;100764.56;5109229;28;20197;-59
2024/01/10 10:56:04;;;;;;;1.53;1.43;;;;;;;3.85;51.56;100753.50;5109461;28;20204;-59
2024/01/10 10:58:35;;;;;;;3.73;1.83;;;;;;;4.40;51.63;100754.16;5109176;28;20288;-59
2024/01/10 11:01:06;;;;;;;2.00;1.60;;;;;;;4.15;49.77;100759.66;5109122;28;20229;-60
2024/01/10 11:03:35;;;;;;;2.40;1.90;;;;;;;4.10;50.85;100753.84;5109201;28;20236;-60
2024/01/10 11:06:03;;;;;;;1.80;1.37;;;;;;;4.02;49.99;100745.59;5108981;28;20198;-60
2024/01/10 11:08:33;;;;;;;2.40;1.67;;;;;;;4.04;52.74;100741.31;5108858;28;20205;-60
2024/01/10 11:11:02;;;;;;;2.70;2.10;;;;;;;4.42;50.99;100738.06;5108887;28;20674;-60
2024/01/10 11:13:36;;;;;;;2.97;2.20;;;;;;;4.53;49.35;100737.81;5108963;28;20193;-60
2024/01/10 11:16:25;;;;;;;1.83;1.43;;;;;;;4.39;50.58;100735.56;5109228;28;20197;-59
2024/01/10 11:19:23;;;;;;;2.60;1.77;;;;;;;3.97;50.51;100735.53;5108818;28;20674;-60
2024/01/10 11:22:01;;;;;;;2.03;1.60;;;;;;;4.26;52.10;100731.63;5108853;28;20197;-59
2024/01/10 11:24:28;;;;;;;3.00;1.83;;;;;;;4.48;49.66;100729.47;5108723;28;20625;-60